sensor_id;sensor_type;location;lat;lon;timestamp;temperature;humidity
22852;DHT22;11592;45.460;9.240;2022-07-10T00:00:12;25.10;88.50
22852;DHT22;11592;45.460;9.240;2022-07-10T00:02:40;25.00;87.80
22852;DHT22;11592;45.460;9.240;2022-07-10T00:05:08;25.00;87.70
22852;DHT22;11592;45.460;9.240;2022-07-10T00:07:40;24.90;87.70
22852;DHT22;11592;45.460;9.240;2022-07-10T00:10:07;24.90;87.90
22852;DHT22;11592;45.460;9.240;2022-07-10T00:12:34;24.80;89.00
22852;DHT22;11592;45.460;9.240;2022-07-10T00:15:02;24.70;89.20
22852;DHT22;11592;45.460;9.240;2022-07-10T00:17:29;24.80;89.00
22852;DHT22;11592;45.460;9.240;2022-07-10T00:19:55;24.70;88.40
22852;DHT22;11592;45.460;9.240;2022-07-10T00:22:22;24.70;89.10
22852;DHT22;11592;45.460;9.240;2022-07-10T00:24:49;24.80;88.50
22852;DHT22;11592;45.460;9.240;2022-07-10T00:27:19;24.80;88.40
22852;DHT22;11592;45.460;9.240;2022-07-10T00:29:46;24.90;88.40
22852;DHT22;11592;45.460;9.240;2022-07-10T00:32:13;24.90;88.20
22852;DHT22;11592;45.460;9.240;2022-07-10T00:34:39;24.90;88.40
22852;DHT22;11592;45.460;9.240;2022-07-10T00:37:06;24.90;88.60
22852;DHT22;11592;45.460;9.240;2022-07-10T00:39:33;24.90;88.00
22852;DHT22;11592;45.460;9.240;2022-07-10T00:42:11;24.80;88.00
22852;DHT22;11592;45.460;9.240;2022-07-10T00:44:38;24.90;88.10
22852;DHT22;11592;45.460;9.240;2022-07-10T00:47:06;24.80;88.00
22852;DHT22;11592;45.460;9.240;2022-07-10T00:49:35;24.90;87.70
22852;DHT22;11592;45.460;9.240;2022-07-10T00:52:04;24.90;87.40
22852;DHT22;11592;45.460;9.240;2022-07-10T00:54:34;24.90;87.50
22852;DHT22;11592;45.460;9.240;2022-07-10T00:57:03;24.80;87.20
22852;DHT22;11592;45.460;9.240;2022-07-10T00:59:30;24.80;87.40
22852;DHT22;11592;45.460;9.240;2022-07-10T01:01:58;24.80;87.20
22852;DHT22;11592;45.460;9.240;2022-07-10T01:04:25;24.60;93.00
22852;DHT22;11592;45.460;9.240;2022-07-10T01:06:51;24.40;91.60
22852;DHT22;11592;45.460;9.240;2022-07-10T01:09:19;24.40;91.90
22852;DHT22;11592;45.460;9.240;2022-07-10T01:11:45;24.20;93.30
22852;DHT22;11592;45.460;9.240;2022-07-10T01:14:12;24.20;92.70
22852;DHT22;11592;45.460;9.240;2022-07-10T01:16:40;24.00;93.20
22852;DHT22;11592;45.460;9.240;2022-07-10T01:19:07;23.90;92.50
22852;DHT22;11592;45.460;9.240;2022-07-10T01:21:36;23.90;92.70
22852;DHT22;11592;45.460;9.240;2022-07-10T01:24:10;24.00;93.10
22852;DHT22;11592;45.460;9.240;2022-07-10T01:26:38;24.00;92.50
22852;DHT22;11592;45.460;9.240;2022-07-10T01:29:09;24.20;91.50
22852;DHT22;11592;45.460;9.240;2022-07-10T01:31:36;24.20;90.90
22852;DHT22;11592;45.460;9.240;2022-07-10T01:34:07;24.10;90.20
22852;DHT22;11592;45.460;9.240;2022-07-10T01:36:37;24.10;90.10
22852;DHT22;11592;45.460;9.240;2022-07-10T01:39:05;24.10;90.60
22852;DHT22;11592;45.460;9.240;2022-07-10T01:41:32;24.10;90.40
22852;DHT22;11592;45.460;9.240;2022-07-10T01:44:00;24.20;90.10
22852;DHT22;11592;45.460;9.240;2022-07-10T01:46:27;24.20;91.20
22852;DHT22;11592;45.460;9.240;2022-07-10T01:48:55;24.10;91.30
22852;DHT22;11592;45.460;9.240;2022-07-10T01:51:22;24.00;91.30
22852;DHT22;11592;45.460;9.240;2022-07-10T01:53:49;24.00;90.50
22852;DHT22;11592;45.460;9.240;2022-07-10T01:56:16;24.10;90.40
22852;DHT22;11592;45.460;9.240;2022-07-10T01:58:43;24.10;90.10
22852;DHT22;11592;45.460;9.240;2022-07-10T02:01:10;24.10;90.00
22852;DHT22;11592;45.460;9.240;2022-07-10T02:03:38;24.10;89.50
22852;DHT22;11592;45.460;9.240;2022-07-10T02:06:23;24.10;89.60
22852;DHT22;11592;45.460;9.240;2022-07-10T02:08:50;24.00;90.10
22852;DHT22;11592;45.460;9.240;2022-07-10T02:11:17;24.00;90.00
22852;DHT22;11592;45.460;9.240;2022-07-10T02:13:44;24.10;89.60
22852;DHT22;11592;45.460;9.240;2022-07-10T02:16:11;24.00;91.30
22852;DHT22;11592;45.460;9.240;2022-07-10T02:18:38;23.90;90.70
22852;DHT22;11592;45.460;9.240;2022-07-10T02:21:06;24.00;89.90
22852;DHT22;11592;45.460;9.240;2022-07-10T02:23:33;24.10;89.80
22852;DHT22;11592;45.460;9.240;2022-07-10T02:26:01;24.10;89.60
22852;DHT22;11592;45.460;9.240;2022-07-10T02:28:28;24.10;89.00
22852;DHT22;11592;45.460;9.240;2022-07-10T02:30:55;24.20;90.00
22852;DHT22;11592;45.460;9.240;2022-07-10T02:33:22;24.10;90.10
22852;DHT22;11592;45.460;9.240;2022-07-10T02:35:49;24.20;89.50
22852;DHT22;11592;45.460;9.240;2022-07-10T02:38:16;24.20;90.20
22852;DHT22;11592;45.460;9.240;2022-07-10T02:40:43;24.10;90.50
22852;DHT22;11592;45.460;9.240;2022-07-10T02:43:09;24.10;90.20
22852;DHT22;11592;45.460;9.240;2022-07-10T02:45:36;24.00;90.60
22852;DHT22;11592;45.460;9.240;2022-07-10T02:48:09;23.90;91.20
22852;DHT22;11592;45.460;9.240;2022-07-10T02:50:36;23.80;91.30
22852;DHT22;11592;45.460;9.240;2022-07-10T02:53:03;23.80;92.10
22852;DHT22;11592;45.460;9.240;2022-07-10T02:55:30;23.70;92.20
22852;DHT22;11592;45.460;9.240;2022-07-10T02:57:58;23.60;92.20
22852;DHT22;11592;45.460;9.240;2022-07-10T03:00:27;23.60;91.50
22852;DHT22;11592;45.460;9.240;2022-07-10T03:02:54;23.60;91.10
22852;DHT22;11592;45.460;9.240;2022-07-10T03:05:22;23.60;91.20
22852;DHT22;11592;45.460;9.240;2022-07-10T03:07:49;23.60;91.60
22852;DHT22;11592;45.460;9.240;2022-07-10T03:10:16;23.50;92.10
22852;DHT22;11592;45.460;9.240;2022-07-10T03:12:43;23.50;92.70
22852;DHT22;11592;45.460;9.240;2022-07-10T03:15:10;23.60;92.70
22852;DHT22;11592;45.460;9.240;2022-07-10T03:17:37;23.50;92.00
22852;DHT22;11592;45.460;9.240;2022-07-10T03:20:04;23.50;92.40
22852;DHT22;11592;45.460;9.240;2022-07-10T03:22:31;23.50;92.50
22852;DHT22;11592;45.460;9.240;2022-07-10T03:24:59;23.50;93.10
22852;DHT22;11592;45.460;9.240;2022-07-10T03:27:26;23.50;92.80
22852;DHT22;11592;45.460;9.240;2022-07-10T03:29:52;23.50;92.20
22852;DHT22;11592;45.460;9.240;2022-07-10T03:32:19;23.50;92.30
22852;DHT22;11592;45.460;9.240;2022-07-10T03:34:46;23.40;93.20
22852;DHT22;11592;45.460;9.240;2022-07-10T03:37:13;23.30;93.30
22852;DHT22;11592;45.460;9.240;2022-07-10T03:39:40;23.30;93.50
22852;DHT22;11592;45.460;9.240;2022-07-10T03:42:07;23.30;93.90
22852;DHT22;11592;45.460;9.240;2022-07-10T03:44:34;23.30;94.00
22852;DHT22;11592;45.460;9.240;2022-07-10T03:47:01;23.30;94.10
22852;DHT22;11592;45.460;9.240;2022-07-10T03:49:28;23.30;93.70
22852;DHT22;11592;45.460;9.240;2022-07-10T03:51:54;23.20;93.30
22852;DHT22;11592;45.460;9.240;2022-07-10T03:54:24;23.20;94.10
22852;DHT22;11592;45.460;9.240;2022-07-10T03:56:51;23.20;93.80
22852;DHT22;11592;45.460;9.240;2022-07-10T03:59:36;23.20;94.30
22852;DHT22;11592;45.460;9.240;2022-07-10T04:02:03;23.10;94.30
22852;DHT22;11592;45.460;9.240;2022-07-10T04:04:30;23.10;94.40
22852;DHT22;11592;45.460;9.240;2022-07-10T04:06:57;23.10;95.90
22852;DHT22;11592;45.460;9.240;2022-07-10T04:09:24;23.10;95.30
22852;DHT22;11592;45.460;9.240;2022-07-10T04:11:51;23.00;95.50
22852;DHT22;11592;45.460;9.240;2022-07-10T04:14:18;23.10;95.50
22852;DHT22;11592;45.460;9.240;2022-07-10T04:16:45;23.10;95.40
22852;DHT22;11592;45.460;9.240;2022-07-10T04:19:12;23.20;95.50
22852;DHT22;11592;45.460;9.240;2022-07-10T04:21:38;23.20;95.20
22852;DHT22;11592;45.460;9.240;2022-07-10T04:24:05;23.20;94.70
22852;DHT22;11592;45.460;9.240;2022-07-10T04:26:33;23.10;95.60
22852;DHT22;11592;45.460;9.240;2022-07-10T04:29:00;23.10;95.60
22852;DHT22;11592;45.460;9.240;2022-07-10T04:31:26;23.10;95.90
22852;DHT22;11592;45.460;9.240;2022-07-10T04:33:53;23.00;96.00
22852;DHT22;11592;45.460;9.240;2022-07-10T04:36:22;23.10;96.00
22852;DHT22;11592;45.460;9.240;2022-07-10T04:38:49;23.10;95.70
22852;DHT22;11592;45.460;9.240;2022-07-10T04:41:15;23.20;95.90
22852;DHT22;11592;45.460;9.240;2022-07-10T04:43:42;23.30;96.00
22852;DHT22;11592;45.460;9.240;2022-07-10T04:46:09;23.40;95.20
22852;DHT22;11592;45.460;9.240;2022-07-10T04:48:36;23.50;95.10
22852;DHT22;11592;45.460;9.240;2022-07-10T04:51:03;23.60;94.90
22852;DHT22;11592;45.460;9.240;2022-07-10T04:53:30;23.70;95.80
22852;DHT22;11592;45.460;9.240;2022-07-10T04:55:57;23.70;94.70
22852;DHT22;11592;45.460;9.240;2022-07-10T04:58:25;23.80;94.30
22852;DHT22;11592;45.460;9.240;2022-07-10T05:00:51;23.80;94.40
22852;DHT22;11592;45.460;9.240;2022-07-10T05:03:18;23.90;94.00
22852;DHT22;11592;45.460;9.240;2022-07-10T05:05:45;23.90;94.50
22852;DHT22;11592;45.460;9.240;2022-07-10T05:08:12;23.90;94.80
22852;DHT22;11592;45.460;9.240;2022-07-10T05:10:39;24.00;95.00
22852;DHT22;11592;45.460;9.240;2022-07-10T05:13:06;24.00;94.50
22852;DHT22;11592;45.460;9.240;2022-07-10T05:15:33;24.10;94.20
22852;DHT22;11592;45.460;9.240;2022-07-10T05:18:00;24.10;94.30
22852;DHT22;11592;45.460;9.240;2022-07-10T05:20:27;24.20;94.20
22852;DHT22;11592;45.460;9.240;2022-07-10T05:22:53;24.20;94.70
22852;DHT22;11592;45.460;9.240;2022-07-10T05:25:20;24.30;94.80
22852;DHT22;11592;45.460;9.240;2022-07-10T05:27:47;24.30;95.20
22852;DHT22;11592;45.460;9.240;2022-07-10T05:30:14;24.30;94.30
22852;DHT22;11592;45.460;9.240;2022-07-10T05:32:44;24.40;93.60
22852;DHT22;11592;45.460;9.240;2022-07-10T05:35:13;24.40;93.60
22852;DHT22;11592;45.460;9.240;2022-07-10T05:37:40;24.50;92.80
22852;DHT22;11592;45.460;9.240;2022-07-10T05:40:08;24.60;93.10
22852;DHT22;11592;45.460;9.240;2022-07-10T05:42:35;24.60;93.10
22852;DHT22;11592;45.460;9.240;2022-07-10T05:45:02;24.70;94.40
22852;DHT22;11592;45.460;9.240;2022-07-10T05:47:30;24.70;94.10
22852;DHT22;11592;45.460;9.240;2022-07-10T05:49:56;24.90;93.50
22852;DHT22;11592;45.460;9.240;2022-07-10T05:52:23;24.90;95.00
22852;DHT22;11592;45.460;9.240;2022-07-10T05:54:50;25.00;94.40
22852;DHT22;11592;45.460;9.240;2022-07-10T05:57:17;25.00;94.30
22852;DHT22;11592;45.460;9.240;2022-07-10T05:59:44;25.10;93.30
22852;DHT22;11592;45.460;9.240;2022-07-10T06:02:11;25.20;92.50
22852;DHT22;11592;45.460;9.240;2022-07-10T06:04:38;25.30;92.00
22852;DHT22;11592;45.460;9.240;2022-07-10T06:07:05;25.30;91.10
22852;DHT22;11592;45.460;9.240;2022-07-10T06:09:31;25.40;90.80
22852;DHT22;11592;45.460;9.240;2022-07-10T06:11:58;25.50;90.60
22852;DHT22;11592;45.460;9.240;2022-07-10T06:14:25;25.70;90.40
22852;DHT22;11592;45.460;9.240;2022-07-10T06:16:52;25.70;89.40
22852;DHT22;11592;45.460;9.240;2022-07-10T06:19:19;25.80;90.00
22852;DHT22;11592;45.460;9.240;2022-07-10T06:21:46;25.80;88.80
22852;DHT22;11592;45.460;9.240;2022-07-10T06:24:12;25.90;88.60
22852;DHT22;11592;45.460;9.240;2022-07-10T06:26:39;26.00;88.50
22852;DHT22;11592;45.460;9.240;2022-07-10T06:29:06;26.00;88.20
22852;DHT22;11592;45.460;9.240;2022-07-10T06:31:33;26.10;86.90
22852;DHT22;11592;45.460;9.240;2022-07-10T06:34:00;26.10;85.40
22852;DHT22;11592;45.460;9.240;2022-07-10T06:36:27;26.20;84.70
22852;DHT22;11592;45.460;9.240;2022-07-10T06:38:59;26.30;85.50
22852;DHT22;11592;45.460;9.240;2022-07-10T06:41:26;26.30;84.60
22852;DHT22;11592;45.460;9.240;2022-07-10T06:43:53;26.40;83.60
22852;DHT22;11592;45.460;9.240;2022-07-10T06:46:19;26.40;84.20
22852;DHT22;11592;45.460;9.240;2022-07-10T06:48:46;26.40;84.60
22852;DHT22;11592;45.460;9.240;2022-07-10T06:51:13;26.50;83.70
22852;DHT22;11592;45.460;9.240;2022-07-10T06:53:44;26.50;80.70
22852;DHT22;11592;45.460;9.240;2022-07-10T06:56:12;26.50;76.40
22852;DHT22;11592;45.460;9.240;2022-07-10T06:58:40;26.60;78.30
22852;DHT22;11592;45.460;9.240;2022-07-10T07:01:08;26.60;77.50
22852;DHT22;11592;45.460;9.240;2022-07-10T07:03:35;27.90;79.40
22852;DHT22;11592;45.460;9.240;2022-07-10T07:06:02;26.70;77.40
22852;DHT22;11592;45.460;9.240;2022-07-10T07:08:29;26.70;80.10
22852;DHT22;11592;45.460;9.240;2022-07-10T07:10:56;26.80;78.50
22852;DHT22;11592;45.460;9.240;2022-07-10T07:13:23;26.80;75.60
22852;DHT22;11592;45.460;9.240;2022-07-10T07:15:50;26.80;74.60
22852;DHT22;11592;45.460;9.240;2022-07-10T07:18:25;26.90;74.30
22852;DHT22;11592;45.460;9.240;2022-07-10T07:20:59;26.90;73.10
22852;DHT22;11592;45.460;9.240;2022-07-10T07:23:45;26.90;72.90
22852;DHT22;11592;45.460;9.240;2022-07-10T07:26:12;26.90;72.00
22852;DHT22;11592;45.460;9.240;2022-07-10T07:28:38;26.90;71.70
22852;DHT22;11592;45.460;9.240;2022-07-10T07:31:05;26.90;71.60
22852;DHT22;11592;45.460;9.240;2022-07-10T07:33:40;27.00;69.70
22852;DHT22;11592;45.460;9.240;2022-07-10T07:36:07;27.00;70.40
22852;DHT22;11592;45.460;9.240;2022-07-10T07:38:34;27.00;71.70
22852;DHT22;11592;45.460;9.240;2022-07-10T07:41:00;26.90;71.20
22852;DHT22;11592;45.460;9.240;2022-07-10T07:43:27;27.00;71.50
22852;DHT22;11592;45.460;9.240;2022-07-10T07:45:54;27.10;72.90
22852;DHT22;11592;45.460;9.240;2022-07-10T07:48:21;27.10;72.70
22852;DHT22;11592;45.460;9.240;2022-07-10T07:50:48;27.00;72.50
22852;DHT22;11592;45.460;9.240;2022-07-10T07:53:14;26.90;71.20
22852;DHT22;11592;45.460;9.240;2022-07-10T07:55:41;26.80;72.10
22852;DHT22;11592;45.460;9.240;2022-07-10T07:58:08;27.00;71.70
22852;DHT22;11592;45.460;9.240;2022-07-10T08:00:35;27.10;71.00
22852;DHT22;11592;45.460;9.240;2022-07-10T08:03:02;27.10;70.90
22852;DHT22;11592;45.460;9.240;2022-07-10T08:05:29;27.00;71.10
22852;DHT22;11592;45.460;9.240;2022-07-10T08:07:58;26.90;71.50
22852;DHT22;11592;45.460;9.240;2022-07-10T08:10:28;27.10;71.20
22852;DHT22;11592;45.460;9.240;2022-07-10T08:12:54;27.20;71.00
22852;DHT22;11592;45.460;9.240;2022-07-10T08:15:22;27.30;70.60
22852;DHT22;11592;45.460;9.240;2022-07-10T08:17:53;27.40;72.10
22852;DHT22;11592;45.460;9.240;2022-07-10T08:20:21;27.50;71.90
22852;DHT22;11592;45.460;9.240;2022-07-10T08:22:48;27.50;71.00
22852;DHT22;11592;45.460;9.240;2022-07-10T08:25:24;27.60;72.60
22852;DHT22;11592;45.460;9.240;2022-07-10T08:27:51;27.70;71.10
22852;DHT22;11592;45.460;9.240;2022-07-10T08:30:18;27.40;72.10
22852;DHT22;11592;45.460;9.240;2022-07-10T08:32:45;27.50;73.00
22852;DHT22;11592;45.460;9.240;2022-07-10T08:35:12;27.60;73.80
22852;DHT22;11592;45.460;9.240;2022-07-10T08:37:41;27.70;74.40
22852;DHT22;11592;45.460;9.240;2022-07-10T08:40:10;27.80;73.00
22852;DHT22;11592;45.460;9.240;2022-07-10T08:42:37;27.90;71.70
22852;DHT22;11592;45.460;9.240;2022-07-10T08:45:04;28.20;71.50
22852;DHT22;11592;45.460;9.240;2022-07-10T08:47:35;28.20;72.00
22852;DHT22;11592;45.460;9.240;2022-07-10T08:50:15;28.40;73.10
22852;DHT22;11592;45.460;9.240;2022-07-10T08:52:46;28.40;72.90
22852;DHT22;11592;45.460;9.240;2022-07-10T08:55:23;28.30;73.40
22852;DHT22;11592;45.460;9.240;2022-07-10T08:57:51;28.30;74.80
22852;DHT22;11592;45.460;9.240;2022-07-10T09:00:18;28.20;74.90
22852;DHT22;11592;45.460;9.240;2022-07-10T09:02:45;28.30;74.70
22852;DHT22;11592;45.460;9.240;2022-07-10T09:05:12;28.40;75.50
22852;DHT22;11592;45.460;9.240;2022-07-10T09:07:39;28.30;76.40
22852;DHT22;11592;45.460;9.240;2022-07-10T09:10:09;28.40;76.30
22852;DHT22;11592;45.460;9.240;2022-07-10T09:12:58;28.30;76.80
22852;DHT22;11592;45.460;9.240;2022-07-10T09:15:27;28.20;75.70
22852;DHT22;11592;45.460;9.240;2022-07-10T09:18:01;28.20;76.60
22852;DHT22;11592;45.460;9.240;2022-07-10T09:20:32;28.30;76.00
22852;DHT22;11592;45.460;9.240;2022-07-10T09:25:35;28.30;74.40
22852;DHT22;11592;45.460;9.240;2022-07-10T09:28:02;29.90;74.70
22852;DHT22;11592;45.460;9.240;2022-07-10T09:30:33;28.20;73.90
22852;DHT22;11592;45.460;9.240;2022-07-10T09:41:18;28.70;76.00
22852;DHT22;11592;45.460;9.240;2022-07-10T09:43:58;28.70;74.00
22852;DHT22;11592;45.460;9.240;2022-07-10T09:51:36;28.80;72.30
22852;DHT22;11592;45.460;9.240;2022-07-10T09:54:07;28.80;72.20
22852;DHT22;11592;45.460;9.240;2022-07-10T09:56:42;28.60;71.80
22852;DHT22;11592;45.460;9.240;2022-07-10T09:59:18;28.70;72.10
22852;DHT22;11592;45.460;9.240;2022-07-10T10:01:50;28.80;71.40
22852;DHT22;11592;45.460;9.240;2022-07-10T10:04:22;28.80;71.00
22852;DHT22;11592;45.460;9.240;2022-07-10T10:06:53;28.90;71.70
22852;DHT22;11592;45.460;9.240;2022-07-10T10:09:38;29.00;71.30
22852;DHT22;11592;45.460;9.240;2022-07-10T10:12:13;29.00;70.90
22852;DHT22;11592;45.460;9.240;2022-07-10T10:14:43;28.90;71.00
22852;DHT22;11592;45.460;9.240;2022-07-10T10:17:11;28.70;71.70
22852;DHT22;11592;45.460;9.240;2022-07-10T10:19:40;28.90;74.80
22852;DHT22;11592;45.460;9.240;2022-07-10T10:22:26;29.00;73.00
22852;DHT22;11592;45.460;9.240;2022-07-10T10:24:54;29.10;73.70
22852;DHT22;11592;45.460;9.240;2022-07-10T10:27:22;29.20;74.00
22852;DHT22;11592;45.460;9.240;2022-07-10T10:29:50;28.90;73.80
22852;DHT22;11592;45.460;9.240;2022-07-10T10:32:18;28.80;74.50
22852;DHT22;11592;45.460;9.240;2022-07-10T10:34:47;28.80;73.30
22852;DHT22;11592;45.460;9.240;2022-07-10T10:37:38;29.00;73.70
22852;DHT22;11592;45.460;9.240;2022-07-10T10:40:09;29.10;73.30
22852;DHT22;11592;45.460;9.240;2022-07-10T10:45:30;29.00;72.40
22852;DHT22;11592;45.460;9.240;2022-07-10T10:50:55;29.10;71.50
22852;DHT22;11592;45.460;9.240;2022-07-10T10:53:25;29.20;71.50
22852;DHT22;11592;45.460;9.240;2022-07-10T10:58:42;29.90;69.50
22852;DHT22;11592;45.460;9.240;2022-07-10T11:04:13;30.30;69.00
22852;DHT22;11592;45.460;9.240;2022-07-10T11:06:52;30.20;69.00
22852;DHT22;11592;45.460;9.240;2022-07-10T11:09:28;30.00;69.80
22852;DHT22;11592;45.460;9.240;2022-07-10T11:12:02;29.90;70.20
22852;DHT22;11592;45.460;9.240;2022-07-10T11:14:32;29.90;70.40
22852;DHT22;11592;45.460;9.240;2022-07-10T11:16:59;30.10;71.00
22852;DHT22;11592;45.460;9.240;2022-07-10T11:19:29;30.40;69.90
22852;DHT22;11592;45.460;9.240;2022-07-10T11:27:34;31.00;69.00
22852;DHT22;11592;45.460;9.240;2022-07-10T11:30:03;31.20;67.70
22852;DHT22;11592;45.460;9.240;2022-07-10T11:32:30;31.10;67.30
22852;DHT22;11592;45.460;9.240;2022-07-10T11:34:57;31.00;67.70
22852;DHT22;11592;45.460;9.240;2022-07-10T11:37:24;31.30;67.20
22852;DHT22;11592;45.460;9.240;2022-07-10T11:40:08;31.70;66.60
22852;DHT22;11592;45.460;9.240;2022-07-10T11:42:55;32.00;66.10
22852;DHT22;11592;45.460;9.240;2022-07-10T11:45:30;31.90;65.80
22852;DHT22;11592;45.460;9.240;2022-07-10T11:47:58;31.90;66.20
22852;DHT22;11592;45.460;9.240;2022-07-10T11:50:26;31.70;65.10
22852;DHT22;11592;45.460;9.240;2022-07-10T11:52:54;32.40;66.00
22852;DHT22;11592;45.460;9.240;2022-07-10T11:55:22;31.70;65.40
22852;DHT22;11592;45.460;9.240;2022-07-10T11:57:49;31.70;65.20
22852;DHT22;11592;45.460;9.240;2022-07-10T12:00:28;31.60;64.50
22852;DHT22;11592;45.460;9.240;2022-07-10T12:02:57;31.80;67.40
22852;DHT22;11592;45.460;9.240;2022-07-10T12:05:41;31.90;65.80
22852;DHT22;11592;45.460;9.240;2022-07-10T12:08:08;32.10;65.70
22852;DHT22;11592;45.460;9.240;2022-07-10T12:10:35;32.00;65.00
22852;DHT22;11592;45.460;9.240;2022-07-10T12:13:09;32.30;66.10
22852;DHT22;11592;45.460;9.240;2022-07-10T12:15:39;32.60;64.50
22852;DHT22;11592;45.460;9.240;2022-07-10T12:18:08;32.70;63.50
22852;DHT22;11592;45.460;9.240;2022-07-10T12:20:35;32.60;62.60
22852;DHT22;11592;45.460;9.240;2022-07-10T12:23:04;32.60;63.00
22852;DHT22;11592;45.460;9.240;2022-07-10T12:25:31;32.80;62.50
22852;DHT22;11592;45.460;9.240;2022-07-10T12:27:58;33.00;61.40
22852;DHT22;11592;45.460;9.240;2022-07-10T12:30:46;33.10;61.20
22852;DHT22;11592;45.460;9.240;2022-07-10T12:33:20;33.50;62.10
22852;DHT22;11592;45.460;9.240;2022-07-10T12:35:58;33.80;59.70
22852;DHT22;11592;45.460;9.240;2022-07-10T12:38:26;34.50;60.00
22852;DHT22;11592;45.460;9.240;2022-07-10T12:41:12;33.80;60.10
22852;DHT22;11592;45.460;9.240;2022-07-10T12:43:40;34.00;59.80
22852;DHT22;11592;45.460;9.240;2022-07-10T12:46:21;34.30;59.70
22852;DHT22;11592;45.460;9.240;2022-07-10T12:49:23;34.70;57.50
22852;DHT22;11592;45.460;9.240;2022-07-10T12:51:50;34.80;57.00
22852;DHT22;11592;45.460;9.240;2022-07-10T12:54:37;34.70;57.10
22852;DHT22;11592;45.460;9.240;2022-07-10T12:57:05;34.80;56.80
22852;DHT22;11592;45.460;9.240;2022-07-10T12:59:34;34.70;56.70
22852;DHT22;11592;45.460;9.240;2022-07-10T13:02:33;34.70;57.40
22852;DHT22;11592;45.460;9.240;2022-07-10T13:05:00;35.40;57.20
22852;DHT22;11592;45.460;9.240;2022-07-10T13:07:35;35.90;55.90
22852;DHT22;11592;45.460;9.240;2022-07-10T13:10:04;36.00;55.30
22852;DHT22;11592;45.460;9.240;2022-07-10T13:12:34;35.80;55.80
22852;DHT22;11592;45.460;9.240;2022-07-10T13:15:03;35.40;56.00
22852;DHT22;11592;45.460;9.240;2022-07-10T13:17:30;35.60;56.50
22852;DHT22;11592;45.460;9.240;2022-07-10T13:19:57;36.20;55.40
22852;DHT22;11592;45.460;9.240;2022-07-10T13:22:24;35.90;55.20
22852;DHT22;11592;45.460;9.240;2022-07-10T13:24:51;35.30;55.00
22852;DHT22;11592;45.460;9.240;2022-07-10T13:27:17;35.30;55.20
22852;DHT22;11592;45.460;9.240;2022-07-10T13:29:46;35.50;54.90
22852;DHT22;11592;45.460;9.240;2022-07-10T13:32:14;35.40;55.40
22852;DHT22;11592;45.460;9.240;2022-07-10T13:34:41;36.00;55.20
22852;DHT22;11592;45.460;9.240;2022-07-10T13:37:08;35.90;55.00
22852;DHT22;11592;45.460;9.240;2022-07-10T13:39:35;35.80;55.40
22852;DHT22;11592;45.460;9.240;2022-07-10T13:42:01;36.10;55.70
22852;DHT22;11592;45.460;9.240;2022-07-10T13:44:28;36.00;55.70
22852;DHT22;11592;45.460;9.240;2022-07-10T13:46:56;36.10;55.80
22852;DHT22;11592;45.460;9.240;2022-07-10T13:49:24;36.70;54.20
22852;DHT22;11592;45.460;9.240;2022-07-10T13:51:54;37.10;54.30
22852;DHT22;11592;45.460;9.240;2022-07-10T13:54:21;37.20;53.60
22852;DHT22;11592;45.460;9.240;2022-07-10T13:56:48;37.20;53.70
22852;DHT22;11592;45.460;9.240;2022-07-10T13:59:15;37.50;53.00
22852;DHT22;11592;45.460;9.240;2022-07-10T14:01:42;37.40;52.80
22852;DHT22;11592;45.460;9.240;2022-07-10T14:04:09;37.30;54.20
22852;DHT22;11592;45.460;9.240;2022-07-10T14:06:36;37.30;53.60
22852;DHT22;11592;45.460;9.240;2022-07-10T14:09:02;37.20;53.40
22852;DHT22;11592;45.460;9.240;2022-07-10T14:11:29;37.20;53.30
22852;DHT22;11592;45.460;9.240;2022-07-10T14:13:56;36.90;53.50
22852;DHT22;11592;45.460;9.240;2022-07-10T14:16:23;36.40;54.20
22852;DHT22;11592;45.460;9.240;2022-07-10T14:18:50;36.00;53.90
22852;DHT22;11592;45.460;9.240;2022-07-10T14:21:17;36.10;53.40
22852;DHT22;11592;45.460;9.240;2022-07-10T14:23:44;36.30;52.90
22852;DHT22;11592;45.460;9.240;2022-07-10T14:26:12;36.40;52.00
22852;DHT22;11592;45.460;9.240;2022-07-10T14:28:39;36.60;52.40
22852;DHT22;11592;45.460;9.240;2022-07-10T14:31:07;37.30;51.80
22852;DHT22;11592;45.460;9.240;2022-07-10T14:33:35;37.10;51.70
22852;DHT22;11592;45.460;9.240;2022-07-10T14:36:05;36.60;52.10
22852;DHT22;11592;45.460;9.240;2022-07-10T14:38:32;37.10;52.40
22852;DHT22;11592;45.460;9.240;2022-07-10T14:40:59;37.40;52.10
22852;DHT22;11592;45.460;9.240;2022-07-10T14:43:26;37.70;52.60
22852;DHT22;11592;45.460;9.240;2022-07-10T14:45:54;38.30;51.30
22852;DHT22;11592;45.460;9.240;2022-07-10T14:48:29;38.50;50.00
22852;DHT22;11592;45.460;9.240;2022-07-10T14:50:57;38.40;49.90
22852;DHT22;11592;45.460;9.240;2022-07-10T14:53:24;38.00;51.10
22852;DHT22;11592;45.460;9.240;2022-07-10T14:55:51;38.30;50.00
22852;DHT22;11592;45.460;9.240;2022-07-10T14:58:18;38.10;49.20
22852;DHT22;11592;45.460;9.240;2022-07-10T15:00:45;37.20;50.10
22852;DHT22;11592;45.460;9.240;2022-07-10T15:03:12;36.90;50.70
22852;DHT22;11592;45.460;9.240;2022-07-10T15:05:39;37.00;50.60
22852;DHT22;11592;45.460;9.240;2022-07-10T15:08:06;37.20;50.60
22852;DHT22;11592;45.460;9.240;2022-07-10T15:10:33;37.30;50.50
22852;DHT22;11592;45.460;9.240;2022-07-10T15:12:59;37.30;50.20
22852;DHT22;11592;45.460;9.240;2022-07-10T15:15:34;36.90;50.40
22852;DHT22;11592;45.460;9.240;2022-07-10T15:18:01;36.80;50.90
22852;DHT22;11592;45.460;9.240;2022-07-10T15:20:28;36.90;50.30
22852;DHT22;11592;45.460;9.240;2022-07-10T15:22:55;36.40;50.20
22852;DHT22;11592;45.460;9.240;2022-07-10T15:25:22;36.10;51.70
22852;DHT22;11592;45.460;9.240;2022-07-10T15:27:49;36.00;50.70
22852;DHT22;11592;45.460;9.240;2022-07-10T15:30:16;36.00;51.90
22852;DHT22;11592;45.460;9.240;2022-07-10T15:32:43;36.30;50.80
22852;DHT22;11592;45.460;9.240;2022-07-10T15:35:09;37.30;51.40
22852;DHT22;11592;45.460;9.240;2022-07-10T15:37:36;36.20;50.10
22852;DHT22;11592;45.460;9.240;2022-07-10T15:40:04;36.10;50.80
22852;DHT22;11592;45.460;9.240;2022-07-10T15:42:31;35.80;52.00
22852;DHT22;11592;45.460;9.240;2022-07-10T15:44:58;35.80;51.20
22852;DHT22;11592;45.460;9.240;2022-07-10T15:47:25;35.20;51.80
22852;DHT22;11592;45.460;9.240;2022-07-10T15:49:52;34.90;52.40
22852;DHT22;11592;45.460;9.240;2022-07-10T15:52:18;34.90;53.70
22852;DHT22;11592;45.460;9.240;2022-07-10T15:54:45;34.90;52.60
22852;DHT22;11592;45.460;9.240;2022-07-10T15:57:13;35.60;53.10
22852;DHT22;11592;45.460;9.240;2022-07-10T15:59:40;35.10;53.20
22852;DHT22;11592;45.460;9.240;2022-07-10T16:02:07;35.30;52.90
22852;DHT22;11592;45.460;9.240;2022-07-10T16:04:34;35.70;53.40
22852;DHT22;11592;45.460;9.240;2022-07-10T16:07:01;35.80;51.70
22852;DHT22;11592;45.460;9.240;2022-07-10T16:09:28;35.60;52.00
22852;DHT22;11592;45.460;9.240;2022-07-10T16:11:55;35.40;52.40